createdAt,value
2018-11-22T00:00:26.007Z,33.30
2018-11-22T00:02:55.764Z,30.37
2018-11-22T00:05:24.121Z,27.83
2018-11-22T00:07:53.734Z,26.47
2018-11-22T00:10:22.740Z,28.00
2018-11-22T00:12:51.010Z,29.53
2018-11-22T00:15:20.034Z,31.30
2018-11-22T00:17:48.381Z,28.73
2018-11-22T00:20:16.698Z,29.20
2018-11-22T00:22:45.027Z,25.70
2018-11-22T00:25:14.363Z,27.47
2018-11-22T00:27:42.696Z,27.40
2018-11-22T00:30:13.406Z,29.67
2018-11-22T00:32:41.686Z,28.03
2018-11-22T00:35:11.763Z,30.30
2018-11-22T00:37:40.976Z,29.63
2018-11-22T00:40:12.020Z,23.73
2018-11-22T00:42:40.766Z,28.00
2018-11-22T00:45:11.223Z,28.43
2018-11-22T00:47:39.593Z,30.73
2018-11-22T00:50:09.641Z,26.07
2018-11-22T00:52:38.019Z,28.33
2018-11-22T00:55:08.227Z,26.33
2018-11-22T00:57:36.509Z,26.30
2018-11-22T01:00:07.123Z,30.27
2018-11-22T01:02:35.447Z,23.80
2018-11-22T01:05:03.719Z,27.30
2018-11-22T01:07:31.997Z,24.13
2018-11-22T01:10:00.331Z,26.87
2018-11-22T01:12:28.625Z,25.90
2018-11-22T01:14:56.927Z,25.93
2018-11-22T01:17:25.238Z,28.60
2018-11-22T01:19:53.522Z,30.23
2018-11-22T01:22:21.827Z,32.30
2018-11-22T01:24:50.150Z,29.43
2018-11-22T01:27:18.430Z,26.47
2018-11-22T01:29:46.710Z,23.80
2018-11-22T01:32:15.439Z,24.80
2018-11-22T01:34:43.733Z,28.07
2018-11-22T01:37:12.047Z,23.90
2018-11-22T01:39:40.303Z,25.53
2018-11-22T01:42:08.607Z,27.30
2018-11-22T01:44:36.846Z,27.17
2018-11-22T01:47:05.282Z,25.33
2018-11-22T01:49:33.597Z,28.60
2018-11-22T01:52:01.900Z,29.90
2018-11-22T01:54:30.194Z,28.27
2018-11-22T01:56:58.491Z,26.00
2018-11-22T01:59:26.834Z,27.17
2018-11-22T02:01:55.155Z,28.53
2018-11-22T02:04:23.734Z,26.43
2018-11-22T02:06:52.027Z,24.27
2018-11-22T02:09:20.346Z,26.43
2018-11-22T02:11:48.654Z,29.60
2018-11-22T02:14:16.959Z,20.90
2018-11-22T02:16:45.230Z,22.53
2018-11-22T02:19:13.484Z,29.80
2018-11-22T02:21:41.827Z,26.47
2018-11-22T02:24:10.430Z,23.20
2018-11-22T02:26:38.747Z,26.40
2018-11-22T02:29:07.009Z,28.00
2018-11-22T02:31:35.317Z,24.87
2018-11-22T02:34:03.611Z,24.10
2018-11-22T02:36:31.886Z,25.97
2018-11-22T02:39:00.211Z,26.63
2018-11-22T02:41:28.556Z,26.63
2018-11-22T02:43:56.847Z,25.23
2018-11-22T02:46:25.176Z,28.23
2018-11-22T02:48:53.485Z,25.20
2018-11-22T02:51:21.824Z,21.40
2018-11-22T02:53:50.543Z,24.33
2018-11-22T02:56:18.799Z,26.77
2018-11-22T02:58:47.063Z,28.87
2018-11-22T03:01:15.336Z,24.27
2018-11-22T03:03:43.632Z,29.80
2018-11-22T03:06:11.923Z,23.97
2018-11-22T03:08:40.219Z,28.63
2018-11-22T03:11:08.504Z,27.90
2018-11-22T03:13:36.807Z,24.27
2018-11-22T03:16:05.421Z,24.23
2018-11-22T03:18:33.750Z,26.60
2018-11-22T03:21:02.025Z,27.93
2018-11-22T03:23:30.297Z,26.20
2018-11-22T03:25:58.585Z,28.13
2018-11-22T03:28:26.911Z,27.03
2018-11-22T03:30:55.227Z,24.53
2018-11-22T03:33:23.496Z,28.33
2018-11-22T03:35:51.771Z,24.00
2018-11-22T03:38:20.078Z,26.80
2018-11-22T03:40:48.357Z,31.57
2018-11-22T03:43:22.059Z,24.50
2018-11-22T03:45:50.322Z,24.90
2018-11-22T03:48:18.655Z,28.07
2018-11-22T03:50:46.920Z,27.73
2018-11-22T03:53:15.505Z,27.87
2018-11-22T03:55:43.793Z,32.03
2018-11-22T03:58:12.525Z,26.30
2018-11-22T04:00:40.807Z,27.03
2018-11-22T04:03:09.091Z,24.83
2018-11-22T04:05:37.398Z,23.07
2018-11-22T04:08:05.867Z,27.00
2018-11-22T04:10:34.186Z,25.03
2018-11-22T04:13:02.463Z,24.57
2018-11-22T04:15:30.735Z,27.90
2018-11-22T04:17:59.038Z,24.37
2018-11-22T04:20:28.870Z,28.60
2018-11-22T04:22:57.154Z,25.27
2018-11-22T04:25:25.824Z,27.43
2018-11-22T04:27:55.276Z,30.13
2018-11-22T04:30:25.047Z,34.03
2018-11-22T04:32:53.648Z,28.93
2018-11-22T04:35:23.041Z,28.63
2018-11-22T04:37:51.343Z,23.93
2018-11-22T04:40:20.943Z,28.27
2018-11-22T04:42:50.050Z,26.43
2018-11-22T04:45:18.778Z,27.13
2018-11-22T04:47:47.842Z,30.00
2018-11-22T04:50:17.695Z,26.50
2018-11-22T04:52:45.986Z,28.73
2018-11-22T04:55:14.403Z,29.73
2018-11-22T04:57:42.697Z,25.20
2018-11-22T05:00:20.932Z,28.33
2018-11-22T05:02:49.709Z,25.40
2018-11-22T05:05:19.430Z,24.83
2018-11-22T05:07:47.926Z,24.33
2018-11-22T05:10:20.406Z,28.23
2018-11-22T05:12:49.114Z,27.40
2018-11-22T05:15:18.787Z,29.73
2018-11-22T05:17:47.070Z,23.90
2018-11-22T05:20:16.679Z,28.90
2018-11-22T05:22:45.109Z,28.10
2018-11-22T05:25:13.851Z,29.73
2018-11-22T05:27:42.216Z,27.37
2018-11-22T05:30:13.048Z,28.40
2018-11-22T05:32:41.330Z,27.93
2018-11-22T05:35:10.540Z,30.03
2018-11-22T05:37:40.883Z,26.37
2018-11-22T05:40:11.486Z,28.27
2018-11-22T05:42:40.167Z,26.27
2018-11-22T05:45:10.667Z,24.13
2018-11-22T05:47:38.987Z,31.10
2018-11-22T05:50:08.904Z,28.40
2018-11-22T05:52:37.198Z,30.33
2018-11-22T05:55:06.725Z,31.70
2018-11-22T05:57:35.059Z,26.20
2018-11-22T06:00:03.384Z,28.57
2018-11-22T06:02:31.634Z,29.67
2018-11-22T06:05:00.011Z,31.23
2018-11-22T06:07:28.255Z,34.97
2018-11-22T06:09:56.553Z,26.90
2018-11-22T06:12:24.882Z,33.43
2018-11-22T06:14:53.195Z,33.00
2018-11-22T06:17:21.506Z,31.80
2018-11-22T06:19:49.786Z,26.97
2018-11-22T06:22:18.075Z,30.70
2018-11-22T06:24:46.371Z,31.30
2018-11-22T06:27:14.638Z,35.57
2018-11-22T06:29:42.982Z,29.37
2018-11-22T06:32:11.317Z,25.57
2018-11-22T06:34:39.961Z,29.20
2018-11-22T06:37:08.343Z,30.30
2018-11-22T06:39:36.686Z,28.60
2018-11-22T06:42:05.026Z,34.90
2018-11-22T06:44:33.354Z,31.30
2018-11-22T06:47:01.662Z,31.03
2018-11-22T06:49:30.015Z,33.13
2018-11-22T06:51:58.399Z,29.20
2018-11-22T06:54:26.692Z,30.63
2018-11-22T06:56:55.784Z,33.27
2018-11-22T06:59:24.123Z,29.97
2018-11-22T07:01:52.493Z,28.97
2018-11-22T07:04:20.777Z,31.73
2018-11-22T07:06:49.084Z,38.17
2018-11-22T07:09:17.398Z,24.70
2018-11-22T07:11:45.663Z,29.60
2018-11-22T07:14:13.948Z,37.20
2018-11-22T07:16:42.242Z,29.10
2018-11-22T07:19:10.522Z,26.07
2018-11-22T07:21:38.795Z,26.83
2018-11-22T07:24:07.092Z,28.07
2018-11-22T07:26:35.398Z,33.30
2018-11-22T12:18:18.680Z,40.33
2018-11-22T12:20:46.954Z,38.20
2018-11-22T12:23:15.218Z,35.33
2018-11-22T12:25:43.534Z,35.23
2018-11-22T12:28:11.860Z,34.67
2018-11-22T12:30:40.155Z,37.10
2018-11-22T12:33:22.663Z,40.03
2018-11-22T12:35:56.266Z,38.23
2018-11-22T12:38:29.956Z,36.47
2018-11-22T12:40:58.203Z,38.63
2018-11-22T12:43:26.474Z,34.10
2018-11-22T12:45:54.805Z,36.10
2018-11-22T12:48:23.095Z,38.03
2018-11-22T12:50:51.393Z,34.03
2018-11-22T12:53:19.797Z,36.07
2018-11-22T12:55:48.054Z,35.53
2018-11-22T12:58:16.394Z,34.60
2018-11-22T13:00:44.682Z,37.23
2018-11-22T13:03:15.126Z,35.67
2018-11-22T13:05:43.420Z,33.00
2018-11-22T13:08:11.751Z,36.30
2018-11-22T13:10:40.063Z,33.80
2018-11-22T13:13:08.377Z,43.60
2018-11-22T13:15:36.730Z,33.37
2018-11-22T13:18:05.303Z,37.27
2018-11-22T13:20:33.716Z,36.30
2018-11-22T13:23:01.963Z,36.10
2018-11-22T13:25:30.268Z,36.07
2018-11-22T13:27:58.590Z,39.10
2018-11-22T13:30:27.944Z,34.90
2018-11-22T13:32:58.998Z,61.30
2018-11-22T13:35:27.310Z,36.30
2018-11-22T13:37:56.169Z,48.83
2018-11-22T13:40:24.590Z,43.83
2018-11-22T13:42:53.645Z,40.77
2018-11-22T13:45:23.734Z,39.10
2018-11-22T13:47:53.080Z,39.67
2018-11-22T13:50:24.043Z,41.17
2018-11-22T13:52:54.210Z,32.93
2018-11-22T13:55:22.579Z,40.10
2018-11-22T13:57:50.866Z,39.60
2018-11-22T14:00:21.244Z,45.23
2018-11-22T14:02:51.001Z,34.33
2018-11-22T14:05:19.393Z,36.27
2018-11-22T14:07:47.673Z,38.10
2018-11-22T14:10:17.266Z,36.83
2018-11-22T14:12:45.853Z,37.40
2018-11-22T14:15:19.863Z,40.97
2018-11-22T14:17:54.006Z,42.40
2018-11-22T14:20:23.798Z,35.77
2018-11-22T14:22:52.148Z,42.30
2018-11-22T14:25:20.486Z,43.87
2018-11-22T14:27:49.864Z,35.90
2018-11-22T14:30:19.656Z,39.80
2018-11-22T14:32:59.329Z,42.43
2018-11-22T14:35:27.858Z,41.87
2018-11-22T14:37:56.201Z,42.60
2018-11-22T14:40:26.078Z,45.23
2018-11-22T14:42:55.000Z,44.87
2018-11-22T14:45:23.990Z,41.27
2018-11-22T14:47:53.618Z,42.20
2018-11-22T14:50:23.972Z,41.40
2018-11-22T14:52:59.519Z,53.70
2018-11-22T14:55:27.943Z,41.83
2018-11-22T14:57:56.301Z,47.17
2018-11-22T15:00:24.779Z,39.30
2018-11-22T15:02:52.897Z,43.43
2018-11-22T15:05:21.178Z,40.33
2018-11-22T15:07:49.506Z,41.07
2018-11-22T15:10:21.477Z,39.23
2018-11-22T15:12:50.107Z,40.33
2018-11-22T15:15:20.818Z,37.57
2018-11-22T15:17:52.829Z,41.80
2018-11-22T15:20:21.642Z,39.30
2018-11-22T15:22:56.062Z,41.83
2018-11-22T15:25:25.836Z,47.63
2018-11-22T15:27:54.191Z,36.20
2018-11-22T15:30:23.879Z,41.80
2018-11-22T15:32:52.230Z,61.40
2018-11-22T15:35:21.839Z,64.70
2018-11-22T15:37:50.435Z,36.17
2018-11-22T15:40:20.026Z,42.83
2018-11-22T15:42:49.849Z,36.83
2018-11-22T15:45:19.549Z,40.20
2018-11-22T15:47:48.115Z,44.70
2018-11-22T15:50:17.735Z,45.27
2018-11-22T15:52:46.092Z,45.23
2018-11-22T15:55:20.800Z,43.20
2018-11-22T15:57:44.711Z,49.67
2018-11-22T16:00:15.275Z,51.20
2018-11-22T16:02:44.539Z,45.80
2018-11-22T16:05:13.386Z,46.67
2018-11-22T16:07:42.411Z,48.57
2018-11-22T16:10:13.741Z,49.10
2018-11-22T16:12:42.141Z,39.43
2018-11-22T16:15:14.635Z,42.10
2018-11-22T16:17:46.194Z,34.00
2018-11-22T16:20:14.499Z,41.67
2018-11-22T16:22:43.851Z,45.30
2018-11-22T16:25:12.860Z,47.03
2018-11-22T16:27:41.209Z,40.90
2018-11-22T16:30:12.995Z,41.33
2018-11-22T16:32:41.287Z,37.17
2018-11-22T16:35:11.299Z,37.33
2018-11-22T16:37:39.617Z,51.13
2018-11-22T16:40:10.204Z,53.57
2018-11-22T16:42:39.190Z,43.40
2018-11-22T16:45:13.696Z,49.77
2018-11-22T16:47:42.302Z,54.00
2018-11-22T16:50:11.322Z,49.17
2018-11-22T16:52:39.872Z,49.90
2018-11-22T16:55:08.941Z,45.10
2018-11-22T16:57:37.249Z,48.17
2018-11-22T17:00:16.636Z,42.90
2018-11-22T17:02:45.499Z,44.70
2018-11-22T17:05:14.372Z,50.53
2018-11-22T17:07:42.961Z,42.50
2018-11-22T17:10:13.081Z,45.57
2018-11-22T17:12:41.473Z,44.63
2018-11-22T17:15:12.405Z,46.77
2018-11-22T17:17:40.767Z,43.80
2018-11-22T17:20:11.025Z,44.00
2018-11-22T17:22:40.000Z,59.50
2018-11-22T17:25:11.317Z,42.53
2018-11-22T17:27:39.815Z,47.83
2018-11-22T17:30:11.334Z,48.03
2018-11-22T17:32:39.325Z,39.20
2018-11-22T17:35:08.992Z,46.17
2018-11-22T17:37:37.372Z,49.63
2018-11-22T17:40:12.937Z,47.37
2018-11-22T17:42:41.469Z,47.73
2018-11-22T17:45:11.987Z,54.20
2018-11-22T17:47:40.551Z,44.10
2018-11-22T17:50:11.281Z,48.10
2018-11-22T17:52:39.599Z,52.73
2018-11-22T17:55:11.361Z,46.20
2018-11-22T17:57:39.883Z,43.83
2018-11-22T18:00:16.072Z,47.80
2018-11-22T18:02:45.382Z,42.50
2018-11-22T18:05:13.736Z,78.07
2018-11-22T18:07:42.020Z,130.97
2018-11-22T18:10:12.904Z,123.77
2018-11-22T18:12:42.281Z,132.97
2018-11-22T18:15:11.807Z,81.30
2018-11-22T18:17:40.063Z,70.90
2018-11-22T18:20:11.285Z,76.37
2018-11-22T18:22:39.885Z,60.60
2018-11-22T18:25:10.410Z,62.00
2018-11-22T18:27:38.891Z,57.03
2018-11-22T18:30:09.844Z,48.77
2018-11-22T18:32:38.161Z,53.90
2018-11-22T18:35:08.073Z,66.93
2018-11-22T18:37:36.412Z,49.50
2018-11-22T18:40:05.414Z,50.83
2018-11-22T18:42:33.793Z,64.73
2018-11-22T18:45:02.087Z,57.47
2018-11-22T18:47:30.384Z,61.87
2018-11-22T18:49:58.711Z,58.67
2018-11-22T18:52:27.081Z,46.47
2018-11-22T18:54:55.470Z,50.57
2018-11-22T18:57:23.830Z,49.80
2018-11-22T18:59:52.091Z,48.03
2018-11-22T19:02:20.390Z,44.80
2018-11-22T19:04:48.706Z,44.47
2018-11-22T19:07:17.069Z,46.33
2018-11-22T19:09:45.386Z,44.97
2018-11-22T19:12:13.736Z,44.43
2018-11-22T19:14:42.049Z,47.77
2018-11-22T19:17:10.327Z,45.07
2018-11-22T19:19:38.622Z,48.23
2018-11-22T19:22:07.057Z,42.43
2018-11-22T19:24:35.353Z,40.93
2018-11-22T19:27:03.661Z,42.97
2018-11-22T19:29:31.982Z,45.70
2018-11-22T19:32:00.284Z,39.13
2018-11-22T19:34:28.588Z,42.23
2018-11-22T19:36:56.883Z,47.10
2018-11-22T19:39:25.155Z,46.73
2018-11-22T19:41:53.501Z,39.47
2018-11-22T19:44:21.806Z,41.60
2018-11-22T19:46:50.159Z,38.30
2018-11-22T19:49:18.457Z,42.33
2018-11-22T19:51:46.726Z,35.83
2018-11-22T19:54:15.109Z,37.57
2018-11-22T19:56:43.399Z,38.40
2018-11-22T19:59:11.756Z,41.07
2018-11-22T20:01:40.015Z,37.10
2018-11-22T20:04:08.311Z,44.10
2018-11-22T20:06:36.782Z,40.60
2018-11-22T20:09:07.542Z,38.57
2018-11-22T20:11:35.836Z,37.63
2018-11-22T20:14:04.530Z,38.77
2018-11-22T20:16:32.828Z,34.77
2018-11-22T20:19:02.303Z,33.70
2018-11-22T20:21:30.655Z,34.20
2018-11-22T20:23:59.001Z,32.17
2018-11-22T20:26:27.393Z,36.07
2018-11-22T20:28:55.722Z,36.33
2018-11-22T20:31:24.020Z,33.30
2018-11-22T20:33:52.321Z,30.40
2018-11-22T20:36:20.635Z,31.93
2018-11-22T20:38:48.931Z,35.47
2018-11-22T20:41:17.275Z,30.30
2018-11-22T20:43:45.538Z,29.37
2018-11-22T20:46:13.865Z,36.30
2018-11-22T20:48:42.283Z,39.47
2018-11-22T20:51:10.607Z,38.20
2018-11-22T20:53:38.921Z,33.13
2018-11-22T20:56:07.238Z,39.00
2018-11-22T20:58:35.560Z,35.93
2018-11-22T21:01:03.921Z,33.67
2018-11-22T21:03:32.224Z,38.97
2018-11-22T21:06:00.493Z,41.10
2018-11-22T21:08:28.777Z,39.63
2018-11-22T21:10:57.096Z,44.70
2018-11-22T21:13:25.413Z,44.30
2018-11-22T21:15:53.771Z,41.10
2018-11-22T21:18:22.120Z,40.17
2018-11-22T21:20:50.399Z,40.57
2018-11-22T21:23:18.708Z,45.80
2018-11-22T21:25:46.998Z,40.73
2018-11-22T21:28:15.328Z,41.43
2018-11-22T21:30:43.591Z,49.00
2018-11-22T21:33:11.910Z,43.67
2018-11-22T21:35:40.235Z,31.70
2018-11-22T21:38:09.091Z,41.50
2018-11-22T21:40:37.374Z,38.43
2018-11-22T21:43:05.766Z,41.40
2018-11-22T21:45:34.732Z,38.47
2018-11-22T21:48:03.044Z,42.53
2018-11-22T21:50:31.333Z,38.97
2018-11-22T21:52:59.664Z,36.43
2018-11-22T21:55:28.771Z,38.60
2018-11-22T21:57:58.211Z,32.97
2018-11-22T22:00:30.644Z,35.90
2018-11-22T22:03:00.645Z,38.83
2018-11-22T22:05:28.898Z,41.73
2018-11-22T22:07:57.231Z,41.57
2018-11-22T22:10:25.507Z,39.33
2018-11-22T22:12:53.905Z,34.97
2018-11-22T22:15:23.674Z,41.63
2018-11-22T22:17:52.046Z,31.03
2018-11-22T22:20:21.778Z,33.80
2018-11-22T22:22:50.151Z,28.90
2018-11-22T22:25:19.643Z,39.33
2018-11-22T22:27:48.542Z,40.23
2018-11-22T22:30:19.264Z,36.97
2018-11-22T22:32:48.476Z,39.13
2018-11-22T22:35:16.786Z,33.90
2018-11-22T22:37:45.113Z,42.60
2018-11-22T22:40:19.346Z,38.77
2018-11-22T22:42:48.563Z,40.83
2018-11-22T22:45:17.878Z,49.13
2018-11-22T22:47:46.831Z,43.57
2018-11-22T22:50:19.381Z,41.60
2018-11-22T22:52:48.710Z,46.23
2018-11-22T22:55:17.050Z,39.87
2018-11-22T22:57:45.561Z,40.60
2018-11-22T23:00:21.236Z,39.03
2018-11-22T23:02:51.184Z,40.17
2018-11-22T23:05:19.930Z,39.30
2018-11-22T23:07:48.202Z,40.30
2018-11-22T23:10:17.303Z,39.23
2018-11-22T23:12:45.584Z,41.90
2018-11-22T23:15:15.062Z,41.17
2018-11-22T23:17:43.422Z,42.30
2018-11-22T23:20:14.201Z,43.53
2018-11-22T23:22:42.724Z,44.30
2018-11-22T23:25:12.066Z,40.30
2018-11-22T23:27:40.677Z,45.93
2018-11-22T23:30:14.152Z,44.70
2018-11-22T23:32:43.346Z,44.70
2018-11-22T23:35:11.571Z,44.80
2018-11-22T23:37:40.127Z,44.13
2018-11-22T23:40:10.535Z,44.27
2018-11-22T23:42:39.148Z,50.77
2018-11-22T23:45:08.760Z,47.83
2018-11-22T23:47:37.519Z,49.23
2018-11-22T23:50:07.661Z,60.00
2018-11-22T23:52:35.982Z,53.87
2018-11-22T23:55:04.799Z,58.77
2018-11-22T23:57:33.071Z,60.60
